Time;durP1;ratioP1;P1;durP2;ratioP2;P2;SDS_P1;SDS_P2;PMS_P1;PMS_P2;Temp;Humidity;BMP_temperature;BMP_pressure;BME280_temperature;BME280_humidity;BME280_pressure;Samples;Min_cycle;Max_cycle;Signal;HPM_P1;HPM_P2
2023/08/31 00:00:44;;;;;;;3.73;2.57;;;14.00;99.90;;;;;;6106628;23;20162;-92
2023/08/31 00:03:10;;;;;;;3.87;2.50;;;12.90;99.90;;;;;;6107514;23;20162;-93
2023/08/31 00:05:44;;;;;;;4.20;2.50;;;13.00;99.90;;;;;;6105533;23;20189;-92
2023/08/31 00:08:13;;;;;;;3.73;2.33;;;12.50;99.90;;;;;;6106715;23;20161;-93
2023/08/31 00:10:39;;;;;;;3.47;2.43;;;12.70;99.90;;;;;;6109256;23;20245;-92
2023/08/31 00:13:06;;;;;;;6.03;2.77;;;12.90;99.90;;;;;;6107164;23;20213;-92
2023/08/31 00:15:35;;;;;;;5.27;2.80;;;12.80;99.90;;;;;;6107378;23;20182;-90
2023/08/31 00:18:03;;;;;;;6.50;3.03;;;12.70;99.90;;;;;;6108226;23;20249;-93
2023/08/31 00:20:30;;;;;;;6.27;2.40;;;12.50;99.90;;;;;;6106634;23;20170;-93
2023/08/31 00:22:56;;;;;;;4.70;2.60;;;13.60;99.90;;;;;;6132956;23;20217;-93
2023/08/31 00:25:22;;;;;;;6.43;2.40;;;13.90;99.90;;;;;;6107126;23;20186;-93
2023/08/31 00:27:48;;;;;;;3.57;2.30;;;12.90;99.90;;;;;;6132863;23;20178;-93
2023/08/31 00:30:14;;;;;;;4.23;2.30;;;12.30;99.90;;;;;;6132582;23;20165;-93
2023/08/31 00:32:42;;;;;;;3.67;2.30;;;12.20;99.90;;;;;;6107485;23;20190;-93
2023/08/31 00:35:09;;;;;;;4.53;2.47;;;12.30;99.90;;;;;;6111643;23;20262;-91
2023/08/31 00:37:45;;;;;;;2.80;2.00;;;12.20;99.90;;;;;;6107540;23;20221;-93
2023/08/31 00:40:32;;;;;;;3.87;2.20;;;12.20;99.90;;;;;;6090533;23;20198;-92
2023/08/31 00:43:08;;;;;;;4.57;2.03;;;12.10;99.90;;;;;;6114393;23;20237;-88
2023/08/31 00:45:34;;;;;;;3.57;2.07;;;12.10;99.90;;;;;;6111332;23;20185;-92
2023/08/31 00:48:08;;;;;;;3.27;2.13;;;12.10;99.90;;;;;;6109999;23;20249;-92
2023/08/31 00:50:33;;;;;;;4.83;2.13;;;12.10;99.90;;;;;;6107689;23;20243;-93
2023/08/31 00:52:59;;;;;;;3.87;2.23;;;12.10;99.90;;;;;;6107059;23;20241;-92
2023/08/31 00:55:28;;;;;;;4.57;2.00;;;12.00;99.90;;;;;;6106826;23;20179;-92
2023/08/31 00:57:55;;;;;;;3.83;2.03;;;12.00;99.90;;;;;;6082865;23;20219;-91
2023/08/31 01:00:30;;;;;;;3.63;2.50;;;12.00;99.90;;;;;;6106872;23;20158;-91
2023/08/31 01:03:04;;;;;;;2.60;1.90;;;12.90;99.90;;;;;;6106752;23;20166;-92
2023/08/31 01:05:59;;;;;;;4.43;2.40;;;11.90;99.90;;;;;;6107019;23;20190;-92
2023/08/31 01:08:42;;;;;;;5.27;2.40;;;11.90;99.90;;;;;;6031410;23;20252;-92
2023/08/31 01:11:34;;;;;;;3.50;2.70;;;12.20;99.90;;;;;;6105127;23;20591;-92
2023/08/31 01:14:18;;;;;;;3.87;2.60;;;11.90;99.90;;;;;;6107919;23;20253;-93
2023/08/31 01:16:48;;;;;;;3.10;2.30;;;11.70;99.90;;;;;;6107188;23;20245;-92
2023/08/31 01:19:49;;;;;;;5.87;2.67;;;11.70;99.90;;;;;;6107242;23;20186;-91
2023/08/31 01:22:41;;;;;;;3.87;1.93;;;11.70;99.90;;;;;;6107127;23;20225;-92
2023/08/31 01:25:09;;;;;;;2.90;1.90;;;11.70;99.90;;;;;;6106519;23;20178;-92
2023/08/31 01:27:35;;;;;;;3.40;2.17;;;11.70;99.90;;;;;;6121026;23;20174;-92
2023/08/31 01:30:02;;;;;;;5.00;2.60;;;12.60;99.90;;;;;;6130671;23;20527;-92
2023/08/31 01:32:28;;;;;;;3.30;1.90;;;11.60;99.90;;;;;;6131165;23;20190;-92
2023/08/31 01:34:57;;;;;;;2.60;1.57;;;12.40;99.90;;;;;;6130613;23;20178;-93
2023/08/31 01:37:45;;;;;;;3.90;2.00;;;12.30;99.90;;;;;;6130065;23;20158;-91
2023/08/31 01:40:19;;;;;;;2.30;1.70;;;11.70;99.90;;;;;;6130582;23;20165;-92
2023/08/31 01:42:47;;;;;;;7.07;2.00;;;11.90;99.90;;;;;;6130648;23;20591;-88
2023/08/31 01:45:16;;;;;;;4.03;1.90;;;12.40;99.90;;;;;;6131844;23;20264;-91
2023/08/31 01:47:43;;;;;;;2.00;1.70;;;12.40;99.90;;;;;;6132403;23;20158;-91
2023/08/31 01:50:11;;;;;;;2.03;1.80;;;12.00;99.90;;;;;;6133598;23;20185;-93
2023/08/31 01:52:36;;;;;;;2.07;1.63;;;12.30;99.90;;;;;;6131297;23;20186;-92
2023/08/31 01:55:03;;;;;;;1.93;1.50;;;11.60;99.90;;;;;;6131575;23;20213;-93
2023/08/31 01:57:28;;;;;;;2.07;1.50;;;11.60;99.90;;;;;;6130808;23;20173;-90
2023/08/31 01:59:55;;;;;;;3.20;1.60;;;12.10;99.90;;;;;;6133144;23;20158;-92
2023/08/31 02:02:21;;;;;;;1.83;1.43;;;11.60;99.90;;;;;;6133399;23;20173;-93
2023/08/31 02:04:46;;;;;;;3.87;1.67;;;12.70;99.90;;;;;;6137455;23;20178;-92
2023/08/31 02:07:14;;;;;;;2.80;1.73;;;12.60;99.90;;;;;;6133620;23;20185;-90
2023/08/31 02:09:43;;;;;;;3.83;1.87;;;13.30;99.90;;;;;;6141497;23;20158;-92
2023/08/31 02:12:10;;;;;;;3.27;1.73;;;11.70;99.90;;;;;;6131484;23;20167;-92
2023/08/31 02:14:36;;;;;;;2.67;1.80;;;12.60;99.90;;;;;;6146993;23;20162;-92
2023/08/31 02:17:02;;;;;;;2.37;1.60;;;13.20;99.90;;;;;;6130973;23;20162;-92
2023/08/31 02:19:27;;;;;;;3.40;1.90;;;13.20;99.90;;;;;;6130642;23;20162;-91
2023/08/31 02:21:56;;;;;;;3.77;2.10;;;12.80;99.90;;;;;;6105799;23;20169;-90
2023/08/31 02:24:22;;;;;;;3.00;1.90;;;11.50;99.90;;;;;;6130569;23;20189;-91
2023/08/31 02:26:50;;;;;;;2.37;1.80;;;11.70;99.90;;;;;;6130112;23;20181;-91
2023/08/31 02:29:15;;;;;;;3.27;1.93;;;11.60;99.90;;;;;;6131356;23;20166;-92
2023/08/31 02:31:41;;;;;;;4.07;2.30;;;11.50;99.90;;;;;;6130951;23;20230;-93
2023/08/31 02:34:08;;;;;;;3.97;2.03;;;11.50;99.90;;;;;;6130812;23;20220;-93
2023/08/31 02:36:34;;;;;;;2.93;2.00;;;13.80;99.90;;;;;;6130853;23;20588;-92
2023/08/31 02:39:00;;;;;;;4.20;2.10;;;12.10;99.90;;;;;;6130115;23;20158;-93
2023/08/31 02:41:28;;;;;;;4.03;1.97;;;12.90;99.90;;;;;;6130729;23;20158;-91
2023/08/31 02:43:54;;;;;;;3.43;2.33;;;12.30;99.90;;;;;;6131669;23;20158;-92
2023/08/31 02:46:23;;;;;;;4.70;2.20;;;12.20;99.90;;;;;;6130939;23;20543;-92
2023/08/31 02:48:50;;;;;;;2.80;1.80;;;12.60;99.90;;;;;;6106860;23;20170;-92
2023/08/31 02:51:15;;;;;;;3.83;2.10;;;11.60;99.90;;;;;;6130046;23;20166;-92
2023/08/31 02:53:41;;;;;;;3.43;2.20;;;12.10;99.90;;;;;;6129781;23;20614;-91
2023/08/31 02:56:07;;;;;;;4.33;2.10;;;11.50;99.90;;;;;;6130049;23;20657;-92
2023/08/31 02:58:33;;;;;;;2.40;2.00;;;11.40;99.90;;;;;;6129563;23;20258;-92
2023/08/31 03:01:12;;;;;;;3.73;1.97;;;11.40;99.90;;;;;;6129183;23;20170;-93
2023/08/31 03:03:39;;;;;;;2.93;2.30;;;11.90;99.90;;;;;;6131964;23;20158;-92
2023/08/31 03:06:09;;;;;;;5.37;2.50;;;12.10;99.90;;;;;;6129092;23;20587;-92
2023/08/31 03:08:36;;;;;;;3.93;2.10;;;11.40;99.90;;;;;;6130674;23;20221;-91
2023/08/31 03:11:03;;;;;;;2.20;1.80;;;11.50;99.90;;;;;;6130070;23;20666;-92
2023/08/31 03:13:28;;;;;;;3.30;1.90;;;11.70;99.90;;;;;;6129805;23;20218;-92
2023/08/31 03:15:56;;;;;;;4.03;2.00;;;11.50;99.90;;;;;;6128889;23;20189;-91
2023/08/31 03:18:22;;;;;;;2.83;2.07;;;12.30;99.90;;;;;;6128703;23;20233;-91
2023/08/31 03:20:47;;;;;;;4.23;2.13;;;11.80;99.90;;;;;;6128706;23;20546;-92
2023/08/31 03:23:13;;;;;;;3.23;2.00;;;11.70;99.90;;;;;;6127933;23;20162;-87
2023/08/31 03:25:39;;;;;;;5.63;2.27;;;12.50;99.90;;;;;;6127847;23;20585;-88
2023/08/31 03:28:04;;;;;;;4.00;2.00;;;12.10;99.90;;;;;;6127316;23;20249;-89
2023/08/31 03:30:30;;;;;;;5.60;2.30;;;11.50;99.90;;;;;;6131432;23;20169;-93
2023/08/31 03:32:55;;;;;;;2.73;2.10;;;12.20;99.90;;;;;;6141158;23;20730;-90
2023/08/31 03:35:26;;;;;;;2.80;2.00;;;11.30;99.90;;;;;;6131152;23;20257;-92
2023/08/31 03:37:52;;;;;;;6.43;2.20;;;11.50;99.90;;;;;;6132344;23;20245;-91
2023/08/31 03:40:19;;;;;;;3.17;2.30;;;12.30;99.90;;;;;;6132084;23;20491;-93
2023/08/31 03:42:46;;;;;;;9.67;2.30;;;11.30;99.90;;;;;;6131220;23;20169;-92
2023/08/31 03:45:12;;;;;;;4.10;2.50;;;11.20;99.90;;;;;;6131645;23;20197;-91
2023/08/31 03:47:41;;;;;;;5.60;2.73;;;11.10;99.90;;;;;;6134817;23;20162;-93
2023/08/31 03:50:07;;;;;;;4.27;2.40;;;11.10;99.90;;;;;;6132411;23;20166;-92
2023/08/31 03:52:32;;;;;;;3.37;2.63;;;11.00;99.90;;;;;;6131742;23;20182;-92
2023/08/31 03:55:01;;;;;;;5.17;2.77;;;11.40;99.90;;;;;;6131206;23;20688;-92
2023/08/31 03:57:26;;;;;;;4.10;2.80;;;12.70;99.90;;;;;;6131915;23;20169;-92
2023/08/31 03:59:54;;;;;;;5.27;2.83;;;12.10;99.90;;;;;;6084896;23;20166;-93
2023/08/31 04:02:20;;;;;;;3.77;2.87;;;11.60;99.90;;;;;;6134440;23;20162;-93
2023/08/31 04:04:46;;;;;;;2.93;2.63;;;11.30;99.90;;;;;;6148323;23;20527;-92
2023/08/31 04:07:11;;;;;;;5.33;2.97;;;11.40;99.90;;;;;;6138337;23;20222;-90
2023/08/31 04:09:37;;;;;;;3.73;2.80;;;11.40;99.90;;;;;;6131931;23;20170;-91
2023/08/31 04:12:03;;;;;;;4.70;2.53;;;11.10;99.90;;;;;;6131517;23;20174;-91
2023/08/31 04:14:29;;;;;;;7.30;2.73;;;11.00;99.90;;;;;;6130647;23;20198;-92
2023/08/31 04:16:55;;;;;;;4.90;2.87;;;11.00;99.90;;;;;;6133531;23;20154;-91
2023/08/31 04:19:21;;;;;;;4.90;2.63;;;11.40;99.90;;;;;;6130567;23;20226;-93
2023/08/31 04:21:47;;;;;;;4.77;2.83;;;11.00;99.90;;;;;;6131254;23;20169;-91
2023/08/31 04:24:13;;;;;;;3.70;2.80;;;11.00;99.90;;;;;;6130208;23;20224;-92
2023/08/31 04:26:39;;;;;;;8.03;3.00;;;11.10;99.90;;;;;;6131097;23;20229;-91
2023/08/31 04:29:07;;;;;;;4.37;2.57;;;12.00;99.90;;;;;;6131658;23;20162;-92
2023/08/31 04:31:50;;;;;;;4.30;2.80;;;11.00;99.90;;;;;;6131064;23;20157;-92
2023/08/31 04:34:16;;;;;;;5.33;3.07;;;12.10;99.90;;;;;;6132208;23;20193;-92
2023/08/31 04:36:41;;;;;;;5.10;2.83;;;12.10;99.90;;;;;;6131899;23;20678;-92
2023/08/31 04:39:08;;;;;;;8.17;2.80;;;12.00;99.90;;;;;;6135052;23;20169;-92
2023/08/31 04:41:33;;;;;;;8.30;2.90;;;11.40;99.90;;;;;;6107477;23;20608;-94
2023/08/31 04:44:02;;;;;;;5.27;3.00;;;11.20;99.90;;;;;;6133546;23;20197;-91
2023/08/31 04:46:32;;;;;;;5.73;2.70;;;11.10;99.90;;;;;;6134940;23;20176;-91
2023/08/31 04:48:59;;;;;;;5.17;3.03;;;11.10;99.90;;;;;;6133003;23;20301;-92
2023/08/31 04:51:29;;;;;;;4.93;2.97;;;11.80;99.90;;;;;;6131692;23;20162;-93
2023/08/31 04:53:55;;;;;;;3.53;2.47;;;11.10;99.90;;;;;;6133140;23;20276;-92
2023/08/31 04:56:21;;;;;;;4.03;2.53;;;11.80;99.90;;;;;;6133935;23;20634;-93
2023/08/31 04:58:46;;;;;;;4.60;2.80;;;11.20;99.90;;;;;;6130596;23;20158;-91
2023/08/31 05:01:12;;;;;;;4.23;2.87;;;11.10;99.90;;;;;;6133091;23;20161;-90
2023/08/31 05:03:37;;;;;;;8.80;2.93;;;11.00;99.90;;;;;;6134372;23;20165;-91
2023/08/31 05:06:04;;;;;;;3.37;2.53;;;11.80;99.90;;;;;;6134086;23;20181;-89
2023/08/31 05:08:30;;;;;;;9.57;2.77;;;11.10;99.90;;;;;;6140985;23;20157;-91
2023/08/31 05:10:57;;;;;;;6.73;3.27;;;11.20;99.90;;;;;;6140173;23;20165;-90
2023/08/31 05:13:24;;;;;;;3.23;2.87;;;11.50;99.90;;;;;;6134778;23;20210;-91
2023/08/31 05:15:49;;;;;;;3.50;2.53;;;11.10;99.90;;;;;;6133494;23;20181;-92
2023/08/31 05:18:16;;;;;;;6.60;3.00;;;11.20;99.90;;;;;;6132515;23;20158;-90
2023/08/31 05:20:46;;;;;;;7.67;2.90;;;11.30;99.90;;;;;;6131502;23;20217;-90
2023/08/31 05:23:12;;;;;;;6.13;2.90;;;11.20;99.90;;;;;;6133115;23;20166;-89
2023/08/31 05:25:42;;;;;;;3.83;2.83;;;11.20;99.90;;;;;;6132432;23;20253;-91
2023/08/31 05:28:07;;;;;;;5.53;2.80;;;11.20;99.90;;;;;;6132015;23;20181;-90
2023/08/31 05:30:34;;;;;;;5.43;2.73;;;11.30;99.90;;;;;;6131476;23;20161;-90
2023/08/31 05:33:00;;;;;;;7.03;2.60;;;11.80;99.90;;;;;;6132182;23;20224;-91
2023/08/31 05:35:27;;;;;;;5.40;3.17;;;11.20;99.90;;;;;;6133672;23;20173;-91
2023/08/31 05:37:52;;;;;;;5.87;2.80;;;11.20;99.90;;;;;;6132217;23;20177;-90
2023/08/31 05:40:18;;;;;;;2.90;2.60;;;11.80;99.90;;;;;;6132301;23;20625;-90
2023/08/31 05:42:44;;;;;;;6.07;3.07;;;11.20;99.90;;;;;;6131598;23;20226;-90
2023/08/31 05:45:10;;;;;;;4.20;2.63;;;11.30;99.90;;;;;;6131250;23;20186;-92
2023/08/31 05:47:36;;;;;;;8.70;3.00;;;11.90;99.90;;;;;;6130870;23;20172;-91
2023/08/31 05:50:02;;;;;;;9.70;3.00;;;11.30;99.90;;;;;;6147845;23;20166;-91
2023/08/31 05:52:28;;;;;;;4.70;2.57;;;11.40;99.90;;;;;;6138675;23;20233;-91
2023/08/31 05:54:54;;;;;;;4.97;3.03;;;11.40;99.90;;;;;;6130461;23;20186;-91
2023/08/31 05:57:22;;;;;;;7.57;3.40;;;11.60;99.90;;;;;;6131901;23;20164;-91
2023/08/31 05:59:49;;;;;;;4.03;2.53;;;11.50;99.90;;;;;;6132358;23;20482;-90
2023/08/31 06:02:15;;;;;;;3.93;2.80;;;12.30;99.90;;;;;;6132429;23;20165;-91
2023/08/31 06:04:41;;;;;;;9.97;2.50;;;11.80;99.90;;;;;;6133375;23;20681;-89
2023/08/31 06:07:07;;;;;;;6.30;2.83;;;11.80;99.90;;;;;;6131751;23;20158;-90
2023/08/31 06:09:32;;;;;;;5.70;3.17;;;11.80;99.90;;;;;;6130035;23;20165;-89
2023/08/31 06:11:58;;;;;;;5.43;3.00;;;12.40;99.90;;;;;;6130697;23;20165;-91
2023/08/31 06:14:23;;;;;;;4.87;2.80;;;12.50;99.90;;;;;;6132308;23;20261;-90
2023/08/31 06:16:49;;;;;;;11.00;2.53;;;12.70;99.90;;;;;;6129965;23;20162;-91
2023/08/31 06:19:16;;;;;;;5.43;2.70;;;12.90;99.90;;;;;;6129295;23;20604;-90
2023/08/31 06:21:41;;;;;;;6.33;2.77;;;12.00;99.90;;;;;;6130735;23;20222;-91
2023/08/31 06:24:12;;;;;;;5.80;2.80;;;12.10;99.90;;;;;;6130999;23;20233;-90
2023/08/31 06:26:38;;;;;;;6.03;3.30;;;12.10;99.90;;;;;;6131118;23;20162;-91
2023/08/31 06:29:04;;;;;;;11.10;3.10;;;12.20;99.90;;;;;;6131261;23;20607;-90
2023/08/31 06:31:29;;;;;;;4.73;2.67;;;12.30;99.90;;;;;;6131394;23;20173;-91
2023/08/31 06:33:56;;;;;;;6.40;2.67;;;12.50;99.90;;;;;;6104069;23;20190;-90
2023/08/31 06:36:23;;;;;;;3.87;2.60;;;12.60;99.90;;;;;;6105213;23;20630;-90
2023/08/31 06:38:49;;;;;;;3.87;2.50;;;12.70;99.90;;;;;;6130504;23;20202;-90
2023/08/31 06:41:15;;;;;;;5.27;2.67;;;12.90;99.90;;;;;;6131271;23;20153;-91
2023/08/31 06:43:41;;;;;;;5.00;2.40;;;13.00;99.90;;;;;;6105201;23;20166;-92
2023/08/31 06:46:07;;;;;;;5.03;2.43;;;13.10;99.90;;;;;;6105811;23;20237;-90
2023/08/31 06:48:32;;;;;;;6.93;2.33;;;13.10;99.90;;;;;;6105177;23;20186;-91
2023/08/31 06:50:58;;;;;;;5.77;2.60;;;13.20;99.90;;;;;;6105680;23;20170;-91
2023/08/31 06:53:24;;;;;;;4.47;2.40;;;13.40;99.90;;;;;;6082292;23;20193;-90
2023/08/31 06:55:52;;;;;;;5.30;2.70;;;13.50;99.90;;;;;;6132070;23;20178;-90
2023/08/31 06:58:17;;;;;;;5.73;1.90;;;13.80;99.90;;;;;;6106790;23;20166;-92
2023/08/31 07:00:44;;;;;;;4.70;2.03;;;13.80;99.90;;;;;;6105514;23;20189;-90
2023/08/31 07:03:10;;;;;;;4.10;2.30;;;14.00;99.90;;;;;;6132817;23;20169;-92
2023/08/31 07:05:42;;;;;;;4.27;1.90;;;14.10;99.90;;;;;;6133056;23;20638;-90
2023/08/31 07:08:08;;;;;;;4.00;1.93;;;14.20;99.90;;;;;;6132295;23;20210;-91
2023/08/31 07:10:36;;;;;;;4.50;2.20;;;14.30;99.90;;;;;;6133103;23;20154;-91
2023/08/31 07:13:03;;;;;;;4.33;2.13;;;14.50;99.90;;;;;;6109946;23;20597;-90
2023/08/31 07:15:29;;;;;;;4.00;2.20;;;14.50;99.90;;;;;;6111375;23;20516;-89
2023/08/31 07:17:54;;;;;;;6.27;2.23;;;14.60;99.90;;;;;;6109110;23;20197;-90
2023/08/31 07:20:21;;;;;;;4.07;2.10;;;15.00;99.90;;;;;;6134344;23;20158;-90
2023/08/31 07:22:48;;;;;;;4.97;2.20;;;14.90;99.90;;;;;;6134250;23;20158;-89
2023/08/31 07:25:13;;;;;;;3.97;1.97;;;15.30;99.90;;;;;;6133965;23;20175;-92
2023/08/31 07:27:40;;;;;;;2.83;1.63;;;15.10;99.90;;;;;;6127788;23;20205;-89
2023/08/31 07:30:06;;;;;;;7.73;2.10;;;15.20;99.90;;;;;;6165189;23;20153;-91
2023/08/31 07:32:32;;;;;;;4.27;1.87;;;15.30;99.90;;;;;;6164411;23;20180;-91
2023/08/31 07:34:58;;;;;;;3.87;2.10;;;15.40;96.50;;;;;;6141527;23;20178;-91
2023/08/31 07:37:24;;;;;;;5.80;1.93;;;15.50;90.90;;;;;;6149764;23;20185;-89
2023/08/31 07:39:49;;;;;;;3.90;1.63;;;15.70;88.50;;;;;;6137246;23;20191;-91
2023/08/31 07:42:15;;;;;;;5.93;1.83;;;15.60;86.70;;;;;;6136541;23;20185;-90
2023/08/31 07:44:44;;;;;;;5.23;1.83;;;15.80;84.40;;;;;;6136649;23;20188;-90
2023/08/31 07:47:11;;;;;;;3.17;1.70;;;15.80;82.10;;;;;;6162477;23;20165;-91
2023/08/31 07:49:36;;;;;;;4.77;2.00;;;15.90;85.30;;;;;;6136602;23;20189;-89
2023/08/31 07:52:03;;;;;;;4.47;1.90;;;16.10;81.90;;;;;;6135924;23;20170;-90
2023/08/31 07:54:28;;;;;;;4.90;1.50;;;16.20;75.20;;;;;;6162395;23;20591;-90
2023/08/31 07:56:54;;;;;;;3.07;1.43;;;16.30;64.20;;;;;;6136932;23;20165;-90
2023/08/31 07:59:20;;;;;;;4.23;1.70;;;16.40;64.20;;;;;;6136513;23;20164;-89
2023/08/31 08:01:46;;;;;;;3.43;1.87;;;16.40;70.10;;;;;;6161046;23;20161;-90
2023/08/31 08:04:11;;;;;;;4.47;1.70;;;16.80;71.00;;;;;;6137445;23;20501;-90
2023/08/31 08:06:37;;;;;;;6.03;1.67;;;16.70;64.90;;;;;;6163348;23;20228;-89
2023/08/31 08:09:04;;;;;;;3.90;1.67;;;16.80;68.70;;;;;;6160439;23;20153;-91
2023/08/31 08:11:30;;;;;;;3.30;1.80;;;16.90;64.80;;;;;;6118824;23;20244;-91
2023/08/31 08:13:56;;;;;;;3.40;1.53;;;17.20;58.40;;;;;;6162290;23;20181;-89
2023/08/31 08:16:21;;;;;;;4.10;1.70;;;17.10;55.90;;;;;;6111219;23;20208;-90
2023/08/31 08:18:49;;;;;;;2.90;1.53;;;17.10;58.00;;;;;;6162890;23;20158;-90
2023/08/31 08:21:15;;;;;;;5.17;1.70;;;17.20;51.00;;;;;;6136680;23;20158;-88
2023/08/31 08:23:40;;;;;;;7.17;2.23;;;17.20;51.30;;;;;;6136347;23;20241;-89
2023/08/31 08:26:06;;;;;;;4.07;2.03;;;17.30;51.90;;;;;;6134176;23;20205;-87
2023/08/31 08:28:32;;;;;;;2.97;1.50;;;17.30;53.40;;;;;;6116815;23;20166;-90
2023/08/31 08:31:03;;;;;;;5.20;1.93;;;17.30;46.90;;;;;;6108127;23;20159;-91
2023/08/31 08:33:32;;;;;;;5.70;1.90;;;17.40;54.20;;;;;;6132319;23;20189;-91
2023/08/31 08:35:58;;;;;;;3.80;1.70;;;17.50;53.90;;;;;;6133562;23;20205;-90
2023/08/31 08:38:25;;;;;;;5.10;1.73;;;17.70;52.50;;;;;;6106898;23;20512;-90
2023/08/31 08:40:51;;;;;;;7.40;2.17;;;17.70;54.70;;;;;;6133212;23;20265;-90
2023/08/31 08:43:26;;;;;;;5.97;1.80;;;17.80;53.50;;;;;;6107443;23;20497;-91
2023/08/31 08:45:58;;;;;;;3.73;1.90;;;17.90;51.80;;;;;;6106802;23;20205;-89
2023/08/31 08:48:24;;;;;;;5.13;1.87;;;17.90;48.50;;;;;;6133794;23;20147;-91
2023/08/31 08:50:50;;;;;;;6.47;2.20;;;18.00;48.10;;;;;;6132735;23;20173;-90
2023/08/31 08:53:16;;;;;;;6.33;2.00;;;18.10;43.50;;;;;;6131364;23;20214;-91
2023/08/31 08:55:41;;;;;;;4.60;1.67;;;18.10;45.40;;;;;;6132788;23;20166;-90
2023/08/31 08:58:07;;;;;;;4.93;1.43;;;18.10;47.50;;;;;;6133268;23;20178;-90
2023/08/31 09:00:33;;;;;;;5.13;2.10;;;18.20;55.10;;;;;;6132878;23;20539;-90
2023/08/31 09:03:02;;;;;;;3.37;1.50;;;18.20;54.10;;;;;;6133061;23;20212;-90
2023/08/31 09:05:31;;;;;;;7.23;2.23;;;18.30;56.30;;;;;;6132980;23;20178;-91
2023/08/31 09:08:10;;;;;;;3.13;1.70;;;18.40;57.20;;;;;;6107430;23;20166;-91
2023/08/31 09:10:44;;;;;;;6.33;1.63;;;18.60;51.90;;;;;;6106443;23;20162;-89
2023/08/31 09:13:12;;;;;;;3.77;1.80;;;18.60;43.10;;;;;;6132066;23;20190;-93
2023/08/31 09:15:49;;;;;;;5.10;2.10;;;18.70;50.40;;;;;;6107545;23;20186;-93
2023/08/31 09:18:34;;;;;;;6.60;2.10;;;18.80;51.10;;;;;;6132530;23;20150;-91
2023/08/31 09:21:01;;;;;;;4.70;2.00;;;18.90;45.60;;;;;;6133592;23;20158;-91
2023/08/31 09:23:28;;;;;;;6.33;2.00;;;18.90;45.00;;;;;;6147686;23;20162;-91
2023/08/31 09:25:54;;;;;;;4.43;1.90;;;18.90;41.00;;;;;;6131886;23;20173;-91
2023/08/31 09:28:22;;;;;;;6.13;2.27;;;18.90;38.30;;;;;;6133796;23;20173;-90
2023/08/31 09:30:50;;;;;;;6.17;1.87;;;18.90;40.70;;;;;;6111378;23;20166;-90
2023/08/31 09:33:17;;;;;;;6.43;2.40;;;19.00;52.90;;;;;;6160485;23;20192;-91
2023/08/31 09:35:57;;;;;;;5.70;1.90;;;19.10;39.80;;;;;;6135534;23;20216;-92
2023/08/31 09:38:23;;;;;;;9.87;2.30;;;19.10;37.00;;;;;;6135377;23;20225;-90
2023/08/31 09:40:49;;;;;;;6.07;1.93;;;19.10;37.40;;;;;;6134625;23;20169;-91
2023/08/31 09:43:22;;;;;;;7.17;2.43;;;19.00;44.60;;;;;;6135207;23;20219;-90
2023/08/31 09:45:49;;;;;;;6.20;2.00;;;19.00;53.00;;;;;;6160372;23;20252;-90
2023/08/31 09:48:16;;;;;;;9.00;2.33;;;19.00;54.90;;;;;;6135213;23;20201;-91
2023/08/31 09:50:44;;;;;;;6.53;2.43;;;19.10;61.60;;;;;;6134553;23;20165;-92
2023/08/31 09:53:11;;;;;;;5.10;2.00;;;19.10;49.80;;;;;;6134926;23;20177;-91
2023/08/31 09:55:39;;;;;;;5.60;2.27;;;19.20;34.00;;;;;;6160475;23;20178;-89
2023/08/31 09:58:07;;;;;;;7.63;2.33;;;21.30;54.30;;;;;;6134126;23;20211;-90
2023/08/31 10:00:36;;;;;;;4.63;1.90;;;19.50;46.10;;;;;;6133635;23;20164;-91
2023/08/31 10:03:05;;;;;;;4.97;1.93;;;19.80;46.50;;;;;;6160250;23;20169;-91
2023/08/31 10:05:35;;;;;;;6.53;2.17;;;19.90;16.60;;;;;;6134284;23;20264;-89
2023/08/31 10:08:01;;;;;;;6.80;2.30;;;19.90;27.60;;;;;;6134757;23;20173;-90
2023/08/31 10:10:29;;;;;;;9.47;2.00;;;19.90;29.30;;;;;;6109323;23;20166;-90
2023/08/31 10:12:56;;;;;;;5.60;2.03;;;19.90;30.50;;;;;;6134727;23;20181;-90
2023/08/31 10:15:22;;;;;;;6.50;2.10;;;19.90;23.80;;;;;;6160327;23;20170;-90
2023/08/31 10:17:47;;;;;;;7.07;1.87;;;19.90;42.50;;;;;;6133629;23;20158;-91
2023/08/31 10:20:18;;;;;;;6.37;2.03;;;19.90;44.80;;;;;;6133632;23;20156;-88
2023/08/31 10:22:44;;;;;;;5.23;1.80;;;19.80;52.00;;;;;;6133772;23;20288;-88
2023/08/31 10:25:11;;;;;;;8.97;2.00;;;19.80;53.60;;;;;;6133618;23;20725;-90
2023/08/31 10:27:42;;;;;;;5.47;1.90;;;19.70;50.90;;;;;;6133780;23;20515;-90
2023/08/31 10:30:27;;;;;;;5.93;2.00;;;19.80;54.60;;;;;;6133112;23;20185;-91
2023/08/31 10:33:07;;;;;;;6.03;1.70;;;19.80;49.20;;;;;;6159770;23;20165;-89
2023/08/31 10:35:54;;;;;;;4.77;1.63;;;19.80;45.30;;;;;;6132933;23;20524;-92
2023/08/31 10:38:30;;;;;;;7.07;2.00;;;19.80;35.10;;;;;;6132757;23;20208;-87
2023/08/31 10:41:09;;;;;;;5.67;2.20;;;19.80;42.20;;;;;;6138227;23;20164;-89
2023/08/31 10:43:58;;;;;;;5.07;1.70;;;19.80;50.40;;;;;;6135466;23;20538;-90
2023/08/31 10:46:34;;;;;;;7.00;1.90;;;19.90;40.70;;;;;;6129590;23;20272;-90
2023/08/31 10:49:09;;;;;;;7.53;2.00;;;20.00;35.20;;;;;;6163343;23;20142;-91
2023/08/31 10:51:36;;;;;;;4.90;2.10;;;20.00;55.50;;;;;;6137887;23;20220;-90
2023/08/31 10:54:13;;;;;;;6.03;1.93;;;20.10;51.60;;;;;;6136629;23;20181;-90
2023/08/31 10:57:00;;;;;;;9.43;1.97;;;20.10;47.60;;;;;;6163391;23;20138;-90
2023/08/31 10:59:47;;;;;;;5.03;2.23;;;20.10;37.90;;;;;;6163116;23;20161;-90
2023/08/31 11:02:36;;;;;;;7.23;2.00;;;20.10;44.50;;;;;;6163645;23;20134;-90
2023/08/31 11:05:16;;;;;;;5.97;1.50;;;20.20;48.20;;;;;;6136748;23;20254;-89
2023/08/31 11:07:43;;;;;;;3.87;1.33;;;20.20;31.70;;;;;;6138369;23;20168;-89
2023/08/31 11:10:16;;;;;;;4.60;1.83;;;20.10;29.70;;;;;;6153086;23;20172;-90
2023/08/31 11:12:44;;;;;;;2.60;1.40;;;20.00;36.90;;;;;;6136214;23;20181;-90
2023/08/31 11:15:15;;;;;;;5.40;1.93;;;19.90;40.30;;;;;;6136024;23;20182;-90
2023/08/31 11:17:42;;;;;;;5.27;1.80;;;19.90;46.30;;;;;;6161541;23;20180;-91
2023/08/31 11:20:09;;;;;;;4.67;1.90;;;20.10;37.50;;;;;;6134894;23;20203;-90
2023/08/31 11:22:40;;;;;;;3.57;1.47;;;20.20;42.70;;;;;;6164527;23;20154;-91
2023/08/31 11:25:06;;;;;;;3.23;1.30;;;20.40;31.40;;;;;;6162287;23;20219;-89
2023/08/31 11:27:32;;;;;;;2.77;1.30;;;20.50;10.40;;;;;;6135716;23;20634;-88
2023/08/31 11:29:59;;;;;;;4.93;1.63;;;20.70;24.30;;;;;;6136692;23;20169;-92
2023/08/31 11:32:25;;;;;;;5.63;1.40;;;20.90;21.40;;;;;;6135814;23;20241;-90
2023/08/31 11:34:50;;;;;;;5.13;1.53;;;20.80;17.20;;;;;;6111433;23;20188;-91
2023/08/31 11:37:17;;;;;;;4.73;1.70;;;20.90;20.30;;;;;;6162774;23;20614;-89
2023/08/31 11:39:53;;;;;;;4.83;1.50;;;21.00;18.00;;;;;;6136593;23;20157;-91
2023/08/31 11:42:20;;;;;;;4.70;1.90;;;21.10;19.40;;;;;;6162360;23;20490;-90
2023/08/31 11:44:52;;;;;;;5.83;1.90;;;21.20;5.10;;;;;;6163970;23;20182;-90
2023/08/31 11:47:19;;;;;;;3.30;1.50;;;21.20;26.70;;;;;;6162203;23;20161;-89
2023/08/31 11:49:48;;;;;;;6.80;1.73;;;21.20;18.70;;;;;;6136899;23;20511;-90
2023/08/31 11:52:14;;;;;;;7.20;1.60;;;21.30;29.90;;;;;;6136123;23;20456;-89
2023/08/31 11:54:42;;;;;;;6.13;1.77;;;21.30;18.30;;;;;;6135674;23;20193;-89
2023/08/31 11:57:08;;;;;;;5.00;2.00;;;21.30;37.80;;;;;;6135930;23;20165;-92
2023/08/31 11:59:38;;;;;;;4.27;2.03;;;21.30;17.20;;;;;;6136730;23;20241;-91
2023/08/31 12:02:08;;;;;;;4.57;1.70;;;21.20;5.90;;;;;;6132415;23;20161;-91
2023/08/31 12:04:44;;;;;;;5.60;1.90;;;21.10;4.60;;;;;;6135823;23;20181;-92
2023/08/31 12:07:10;;;;;;;9.07;2.03;;;21.10;14.70;;;;;;6136875;23;20475;-88
2023/08/31 12:09:36;;;;;;;5.00;2.10;;;21.10;1.00;;;;;;6135911;23;20184;-90
2023/08/31 12:12:04;;;;;;;4.80;1.93;;;21.10;14.90;;;;;;6135965;23;20512;-90
2023/08/31 12:14:30;;;;;;;5.00;1.80;;;21.10;22.10;;;;;;6161444;23;20193;-88
2023/08/31 12:17:03;;;;;;;4.03;1.80;;;21.00;38.30;;;;;;6162584;23;20157;-89
2023/08/31 12:19:33;;;;;;;6.47;2.07;;;21.00;35.40;;;;;;6136423;23;20621;-89
2023/08/31 12:21:59;;;;;;;7.57;2.00;;;21.10;47.20;;;;;;6136660;23;20516;-90
2023/08/31 12:24:26;;;;;;;5.67;2.00;;;21.10;35.80;;;;;;6135640;23;20181;-91
2023/08/31 12:26:55;;;;;;;7.50;2.30;;;21.10;30.50;;;;;;6134645;23;20189;-91
2023/08/31 12:29:21;;;;;;;3.10;1.70;;;21.00;36.20;;;;;;6161392;23;20209;-91
2023/08/31 12:31:47;;;;;;;4.30;2.10;;;21.20;35.60;;;;;;6134230;23;20236;-91
2023/08/31 12:34:13;;;;;;;5.97;1.97;;;21.30;40.60;;;;;;6109344;23;20212;-91
2023/08/31 12:36:41;;;;;;;3.90;1.60;;;21.40;33.00;;;;;;6133717;23;20158;-90
2023/08/31 12:39:09;;;;;;;2.40;1.40;;;21.50;50.10;;;;;;6134159;23;20158;-90
2023/08/31 12:41:36;;;;;;;5.07;1.47;;;21.60;29.40;;;;;;6166325;23;20157;-91
2023/08/31 12:44:03;;;;;;;3.90;1.33;;;21.50;12.90;;;;;;6163180;23;20541;-90
2023/08/31 12:46:29;;;;;;;2.73;1.70;;;21.40;11.20;;;;;;6162010;23;20216;-91
2023/08/31 12:48:56;;;;;;;2.77;1.30;;;21.30;16.50;;;;;;6136243;23;20212;-91
2023/08/31 12:51:22;;;;;;;4.30;1.53;;;21.20;19.20;;;;;;6135728;23;20161;-89
2023/08/31 12:53:48;;;;;;;4.03;1.20;;;21.30;26.50;;;;;;6146735;23;20197;-85